createdAt,value
2019-02-21T00:01:15.814Z,73.69
2019-02-21T00:03:50.331Z,74.26
2019-02-21T00:06:24.838Z,73.85
2019-02-21T00:08:59.587Z,73.88
2019-02-21T00:11:33.526Z,74.83
2019-02-21T00:14:07.819Z,74.83
2019-02-21T00:16:42.318Z,73.74
2019-02-21T00:19:16.647Z,73.27
2019-02-21T00:21:50.699Z,73.48
2019-02-21T00:24:25.151Z,73.35
2019-02-21T00:26:59.675Z,73.87
2019-02-21T00:29:34.588Z,74.58
2019-02-21T00:32:09.322Z,74.58
2019-02-21T00:34:43.783Z,74.72
2019-02-21T00:37:18.060Z,75.92
2019-02-21T00:39:52.554Z,75.08
2019-02-21T00:42:27.832Z,75.51
2019-02-21T00:45:02.530Z,75.51
2019-02-21T00:47:36.843Z,75.25
2019-02-21T00:50:11.536Z,75.15
2019-02-21T00:52:45.927Z,73.78
2019-02-21T00:55:20.514Z,73.99
2019-02-21T00:57:54.980Z,73.88
2019-02-21T01:00:29.649Z,76.08
2019-02-21T01:03:03.811Z,76.07
2019-02-21T01:05:38.320Z,75.73
2019-02-21T01:08:12.676Z,75.43
2019-02-21T01:10:47.070Z,74.08
2019-02-21T01:13:21.511Z,74.75
2019-02-21T01:15:55.883Z,74.02
2019-02-21T01:18:30.443Z,74.24
2019-02-21T01:21:05.323Z,75.84
2019-02-21T01:23:39.677Z,74.27
2019-02-21T01:26:14.556Z,74.48
2019-02-21T01:28:48.987Z,74.80
2019-02-21T01:31:23.326Z,74.82
2019-02-21T01:33:57.787Z,74.29
2019-02-21T01:36:32.183Z,74.97
2019-02-21T01:39:07.903Z,75.38
2019-02-21T01:41:43.043Z,76.43
2019-02-21T01:44:17.848Z,76.02
2019-02-21T01:46:52.468Z,75.63
2019-02-21T01:49:26.784Z,73.94
2019-02-21T01:52:01.631Z,72.97
2019-02-21T01:54:36.330Z,73.68
2019-02-21T01:57:10.652Z,73.42
2019-02-21T01:59:44.397Z,74.76
2019-02-21T02:02:18.590Z,74.66
2019-02-21T02:04:53.325Z,75.51
2019-02-21T02:07:28.170Z,75.46
2019-02-21T02:11:47.686Z,75.05
2019-02-21T02:14:22.153Z,74.48
2019-02-21T02:16:58.640Z,75.34
2019-02-21T02:19:32.895Z,74.21
2019-02-21T02:22:07.325Z,74.21
2019-02-21T02:24:41.805Z,74.94
2019-02-21T02:27:16.421Z,75.27
2019-02-21T02:29:50.783Z,75.80
2019-02-21T02:32:24.495Z,75.87
2019-02-21T02:34:59.905Z,75.49
2019-02-21T02:37:34.813Z,75.49
2019-02-21T02:40:09.529Z,75.13
2019-02-21T02:42:43.797Z,75.66
2019-02-21T02:45:18.324Z,75.05
2019-02-21T02:47:52.721Z,75.02
2019-02-21T02:50:26.276Z,74.97
2019-02-21T02:53:00.695Z,74.71
2019-02-21T02:55:34.145Z,74.49
2019-02-21T02:58:08.533Z,75.10
2019-02-21T03:00:43.005Z,74.21
2019-02-21T03:03:17.574Z,74.21
2019-02-21T03:05:51.976Z,75.69
2019-02-21T03:08:26.320Z,75.69
2019-02-21T03:11:00.884Z,74.97
2019-02-21T03:13:36.509Z,75.94
2019-02-21T03:16:10.818Z,76.80
2019-02-21T03:18:45.041Z,76.16
2019-02-21T03:21:19.524Z,76.63
2019-02-21T03:23:54.312Z,76.79
2019-02-21T03:26:28.663Z,76.79
2019-02-21T03:29:02.977Z,77.02
2019-02-21T03:31:53.635Z,77.19
2019-02-21T03:34:13.826Z,77.17
2019-02-21T03:36:48.085Z,75.68
2019-02-21T03:39:22.665Z,75.40
2019-02-21T03:41:57.668Z,74.67
2019-02-21T03:44:31.466Z,74.33
2019-02-21T03:47:05.947Z,74.49
2019-02-21T03:49:40.595Z,74.49
2019-02-21T03:52:14.519Z,72.76
2019-02-21T03:54:48.476Z,72.54
2019-02-21T03:57:22.949Z,71.50
2019-02-21T03:59:57.546Z,72.12
2019-02-21T04:02:32.318Z,71.89
2019-02-21T04:05:07.021Z,71.89
2019-02-21T04:07:41.600Z,71.24
2019-02-21T04:10:16.126Z,70.83
2019-02-21T04:12:50.625Z,70.83
2019-02-21T04:15:25.329Z,72.31
2019-02-21T04:17:59.933Z,72.31
2019-02-21T04:20:34.524Z,73.53
2019-02-21T04:23:08.795Z,73.37
2019-02-21T04:25:43.105Z,74.02
2019-02-21T04:28:17.612Z,74.05
2019-02-21T04:30:51.460Z,74.38
2019-02-21T04:33:25.786Z,73.61
2019-02-21T04:36:00.325Z,73.64
2019-02-21T04:38:34.864Z,73.54
2019-02-21T04:41:09.333Z,73.25
2019-02-21T04:43:43.863Z,72.52
2019-02-21T04:46:18.309Z,72.17
2019-02-21T04:48:52.814Z,72.27
2019-02-21T04:51:27.052Z,72.01
2019-02-21T04:54:01.675Z,71.34
2019-02-21T04:56:35.967Z,70.32
2019-02-21T04:59:10.598Z,70.32
2019-02-21T05:01:45.050Z,71.03
2019-02-21T05:04:19.671Z,71.03
2019-02-21T05:06:53.616Z,71.19
2019-02-21T05:09:27.955Z,69.83
2019-02-21T05:12:02.646Z,69.83
2019-02-21T05:14:36.273Z,70.09
2019-02-21T05:17:10.639Z,69.53
2019-02-21T05:19:45.044Z,71.02
2019-02-21T05:22:19.642Z,71.02
2019-02-21T05:24:53.962Z,70.09
2019-02-21T05:27:32.694Z,70.09
2019-02-21T05:30:09.634Z,70.73
2019-02-21T05:33:07.560Z,70.28
2019-02-21T05:35:55.468Z,70.79
2019-02-21T05:38:49.874Z,70.79
2019-02-21T05:41:44.537Z,71.33
2019-02-21T05:44:25.197Z,71.99
2019-02-21T05:47:12.837Z,71.99
2019-02-21T05:50:06.832Z,71.14
2019-02-21T05:52:51.010Z,70.93
2019-02-21T05:55:45.213Z,71.87
2019-02-21T05:58:38.109Z,72.07
2019-02-21T06:01:31.132Z,72.32
2019-02-21T06:04:23.979Z,72.55
2019-02-21T06:07:09.855Z,73.01
2019-02-21T06:09:50.780Z,72.75
2019-02-21T06:12:44.862Z,72.40
2019-02-21T06:15:44.755Z,73.30
2019-02-21T06:18:37.127Z,74.02
2019-02-21T06:21:39.571Z,73.72
2019-02-21T06:24:29.329Z,72.43
2019-02-21T06:27:21.314Z,72.43
2019-02-21T06:29:59.713Z,71.79
2019-02-21T06:32:34.334Z,70.88
2019-02-21T06:35:09.331Z,70.45
2019-02-21T06:37:43.632Z,71.66
2019-02-21T06:40:17.525Z,70.57
2019-02-21T06:42:52.027Z,71.26
2019-02-21T06:45:26.871Z,71.26
2019-02-21T06:48:01.451Z,71.37
2019-02-21T06:50:35.980Z,72.06
2019-02-21T06:53:10.568Z,71.65
2019-02-21T06:55:45.169Z,71.59
2019-02-21T06:58:19.646Z,71.59
2019-02-21T07:00:54.147Z,71.43
2019-02-21T07:03:29.117Z,71.43
2019-02-21T07:06:05.069Z,70.73
2019-02-21T07:08:40.316Z,69.74
2019-02-21T07:11:15.050Z,69.02
2019-02-21T07:13:49.677Z,68.54
2019-02-21T07:16:24.109Z,68.48
2019-02-21T07:18:58.547Z,68.53
2019-02-21T07:21:33.132Z,66.57
2019-02-21T07:24:07.736Z,66.57
2019-02-21T07:26:42.811Z,65.35
2019-02-21T07:29:17.556Z,64.22
2019-02-21T07:31:52.109Z,63.42
2019-02-21T07:34:26.811Z,63.42
2019-02-21T07:37:01.654Z,61.26
2019-02-21T07:39:37.454Z,60.46
2019-02-21T07:42:12.317Z,59.16
2019-02-21T07:44:47.108Z,60.64
2019-02-21T07:47:22.329Z,60.73
2019-02-21T07:49:56.986Z,60.72
2019-02-21T07:52:31.334Z,59.21
2019-02-21T07:55:06.136Z,58.94
2019-02-21T07:57:40.836Z,58.68
2019-02-21T08:00:15.490Z,58.05
2019-02-21T08:02:51.855Z,58.69
2019-02-21T08:05:26.656Z,58.17
2019-02-21T08:08:01.003Z,57.56
2019-02-21T08:10:37.521Z,56.70
2019-02-21T08:13:12.506Z,53.94
2019-02-21T08:15:47.745Z,54.46
2019-02-21T08:18:22.830Z,54.46
2019-02-21T08:20:58.026Z,53.71
2019-02-21T08:23:32.663Z,51.26
2019-02-21T08:26:09.544Z,51.63
2019-02-21T08:28:43.706Z,50.76
2019-02-21T08:31:18.710Z,50.19
2019-02-21T08:34:04.289Z,47.46
2019-02-21T08:36:39.277Z,48.65
2019-02-21T08:39:14.325Z,47.79
2019-02-21T08:41:49.199Z,42.29
2019-02-21T08:44:24.637Z,37.54
2019-02-21T08:46:58.760Z,37.02
2019-02-21T08:49:32.526Z,37.28
2019-02-21T08:52:07.311Z,34.27
2019-02-21T08:54:41.769Z,34.27
2019-02-21T08:57:19.461Z,33.71
2019-02-21T08:59:53.147Z,33.60
2019-02-21T09:02:28.518Z,33.60
2019-02-21T09:05:02.468Z,31.08
2019-02-21T09:07:37.139Z,31.86
2019-02-21T09:10:12.653Z,31.86
2019-02-21T09:12:48.524Z,30.24
2019-02-21T09:15:22.832Z,28.68
2019-02-21T09:17:57.435Z,26.80
2019-02-21T09:20:32.312Z,26.18
2019-02-21T09:23:06.998Z,25.08
2019-02-21T09:25:41.664Z,25.03
2019-02-21T09:28:16.315Z,24.27
2019-02-21T09:30:51.745Z,23.31
2019-02-21T09:33:26.340Z,22.46
2019-02-21T09:36:00.839Z,21.51
2019-02-21T09:38:35.565Z,22.49
2019-02-21T09:41:10.498Z,22.67
2019-02-21T09:43:45.118Z,22.75
2019-02-21T09:46:19.609Z,22.75
2019-02-21T09:48:54.420Z,21.99
2019-02-21T09:51:29.004Z,21.99
2019-02-21T09:54:03.583Z,23.74
2019-02-21T09:56:38.313Z,23.07
2019-02-21T09:59:12.834Z,23.07
2019-02-21T10:01:47.390Z,22.98
2019-02-21T10:04:31.583Z,22.93
2019-02-21T10:06:58.484Z,22.55
2019-02-21T10:09:33.306Z,24.00
2019-02-21T10:12:07.604Z,22.25
2019-02-21T10:14:43.142Z,20.95
2019-02-21T10:17:17.776Z,20.95
2019-02-21T10:19:52.110Z,21.27
2019-02-21T10:22:26.827Z,20.38
2019-02-21T10:25:01.524Z,19.65
2019-02-21T10:27:36.477Z,18.86
2019-02-21T10:30:14.509Z,18.56
2019-02-21T10:32:48.902Z,18.56
2019-02-21T10:35:23.308Z,19.12
2019-02-21T10:37:57.801Z,18.26
2019-02-21T10:40:33.432Z,19.45
2019-02-21T10:43:07.480Z,21.17
2019-02-21T10:45:47.696Z,21.45
2019-02-21T10:48:18.789Z,21.64
2019-02-21T10:50:55.740Z,21.27
2019-02-21T10:53:30.313Z,20.02
2019-02-21T10:56:04.796Z,19.14
2019-02-21T10:58:39.311Z,18.62
2019-02-21T11:01:14.084Z,18.82
2019-02-21T11:03:48.792Z,17.36
2019-02-21T11:06:23.581Z,16.86
2019-02-21T11:08:58.293Z,19.06
2019-02-21T11:11:33.070Z,19.06
2019-02-21T11:14:23.819Z,19.15
2019-02-21T11:16:58.307Z,18.94
2019-02-21T11:19:32.820Z,17.69
2019-02-21T11:22:07.525Z,16.92
2019-02-21T11:24:41.591Z,19.32
2019-02-21T11:27:16.308Z,19.32
2019-02-21T11:29:51.092Z,19.47
2019-02-21T11:32:26.637Z,19.83
2019-02-21T11:35:06.216Z,21.73
2019-02-21T11:37:43.316Z,21.82
2019-02-21T11:40:15.834Z,21.46
2019-02-21T11:43:09.655Z,22.48
2019-02-21T11:45:53.421Z,24.19
2019-02-21T11:48:20.799Z,22.83
2019-02-21T11:50:55.550Z,21.12
2019-02-21T11:53:30.150Z,19.34
2019-02-21T11:56:04.576Z,19.34
2019-02-21T11:58:38.527Z,18.31
2019-02-21T12:01:13.313Z,18.78
2019-02-21T12:03:47.721Z,20.46
2019-02-21T12:06:22.421Z,21.07
2019-02-21T12:08:57.017Z,20.54
2019-02-21T12:11:31.521Z,21.04
2019-02-21T12:14:06.526Z,20.46
2019-02-21T12:16:40.529Z,19.23
2019-02-21T12:19:15.318Z,19.43
2019-02-21T12:21:58.623Z,19.43
2019-02-21T12:24:26.700Z,18.60
2019-02-21T12:27:00.491Z,17.75
2019-02-21T12:29:35.028Z,19.10
2019-02-21T12:32:09.870Z,19.10
2019-02-21T12:34:44.559Z,18.68
2019-02-21T12:37:18.270Z,18.59
2019-02-21T12:39:53.073Z,18.17
2019-02-21T12:42:27.596Z,19.30
2019-02-21T12:45:01.484Z,21.00
2019-02-21T12:47:36.826Z,20.93
2019-02-21T12:50:11.807Z,20.82
2019-02-21T12:52:46.330Z,23.61
2019-02-21T12:58:19.022Z,25.94
2019-02-21T13:00:54.411Z,25.94
2019-02-21T13:03:30.017Z,25.84
2019-02-21T13:06:04.534Z,25.84
2019-02-21T13:08:38.982Z,25.11
2019-02-21T13:11:13.501Z,25.11
2019-02-21T13:13:48.188Z,25.91
2019-02-21T13:16:24.089Z,25.91
2019-02-21T13:18:58.831Z,25.80
2019-02-21T13:21:33.512Z,26.47
2019-02-21T13:24:07.939Z,25.98
2019-02-21T13:26:42.448Z,26.56
2019-02-21T13:29:17.312Z,26.54
2019-02-21T13:31:51.827Z,26.54
2019-02-21T13:34:27.452Z,26.10
2019-02-21T13:37:01.970Z,26.03
2019-02-21T13:40:26.851Z,26.36
2019-02-21T13:43:01.553Z,26.89
2019-02-21T13:45:35.414Z,27.68
2019-02-21T13:48:10.009Z,26.39
2019-02-21T13:50:44.782Z,26.39
2019-02-21T13:53:19.531Z,25.63
2019-02-21T13:55:54.341Z,25.61
2019-02-21T13:58:28.861Z,25.80
2019-02-21T14:01:03.821Z,25.64
2019-02-21T14:03:38.912Z,26.93
2019-02-21T14:06:13.449Z,26.30
2019-02-21T14:08:48.062Z,26.70
2019-02-21T14:11:22.807Z,27.04
2019-02-21T14:13:57.614Z,27.84
2019-02-21T14:16:32.141Z,29.89
2019-02-21T14:19:06.871Z,29.89
2019-02-21T14:21:43.595Z,31.18
2019-02-21T14:24:18.442Z,33.78
2019-02-21T14:26:52.809Z,33.78
2019-02-21T14:29:38.432Z,34.51
2019-02-21T14:32:04.023Z,35.11
2019-02-21T14:34:38.912Z,35.72
2019-02-21T14:37:13.543Z,34.20
2019-02-21T14:39:47.470Z,34.72
2019-02-21T14:42:22.442Z,34.72
2019-02-21T14:44:56.847Z,33.99
2019-02-21T14:47:33.527Z,34.75
2019-02-21T14:50:08.128Z,34.57
2019-02-21T14:52:43.342Z,33.89
2019-02-21T14:55:18.608Z,34.47
2019-02-21T14:57:52.529Z,35.28
2019-02-21T15:00:27.355Z,33.99
2019-02-21T15:03:02.707Z,33.99
2019-02-21T15:05:38.776Z,34.11
2019-02-21T15:08:16.890Z,34.34
2019-02-21T15:10:52.800Z,34.32
2019-02-21T15:13:27.953Z,35.51
2019-02-21T15:16:02.586Z,36.35
2019-02-21T15:18:39.494Z,36.45
2019-02-21T15:21:13.412Z,36.87
2019-02-21T15:23:48.532Z,36.49
2019-02-21T15:26:23.028Z,36.20
2019-02-21T15:28:59.981Z,36.20
2019-02-21T15:31:34.562Z,36.93
2019-02-21T15:34:08.470Z,36.17
2019-02-21T15:36:43.473Z,37.54
2019-02-21T15:39:18.303Z,37.51
2019-02-21T15:41:53.098Z,37.51
2019-02-21T15:44:27.633Z,38.14
2019-02-21T15:47:02.047Z,38.85
2019-02-21T15:49:36.893Z,38.54
2019-02-21T15:52:21.926Z,37.93
2019-02-21T15:54:48.107Z,38.06
2019-02-21T15:57:22.833Z,37.55
2019-02-21T15:59:58.573Z,39.12
2019-02-21T16:02:32.519Z,39.78
2019-02-21T16:05:08.102Z,39.24
2019-02-21T16:07:43.315Z,40.53
2019-02-21T16:10:22.536Z,41.39
2019-02-21T16:12:57.085Z,41.65
2019-02-21T16:15:32.074Z,42.15
2019-02-21T16:18:07.335Z,41.13
2019-02-21T16:20:42.061Z,42.08
2019-02-21T16:23:19.280Z,43.31
2019-02-21T16:25:53.706Z,44.37
2019-02-21T16:28:28.310Z,45.20
2019-02-21T16:31:02.890Z,45.42
2019-02-21T16:33:38.535Z,44.81
2019-02-21T16:36:12.430Z,44.82
2019-02-21T16:38:47.065Z,44.82
2019-02-21T16:41:22.065Z,44.96
2019-02-21T16:43:57.140Z,45.65
2019-02-21T16:46:32.122Z,44.80
2019-02-21T16:49:07.456Z,45.78
2019-02-21T16:51:41.773Z,46.60
2019-02-21T16:54:16.376Z,47.58
2019-02-21T16:56:51.047Z,48.68
2019-02-21T16:59:25.896Z,49.51
2019-02-21T17:02:00.532Z,50.14
2019-02-21T17:04:35.568Z,51.27
2019-02-21T17:07:15.982Z,50.70
2019-02-21T17:09:46.065Z,50.70
2019-02-21T17:12:20.471Z,51.04
2019-02-21T17:14:55.307Z,53.09
2019-02-21T17:17:30.163Z,53.09
2019-02-21T17:20:07.110Z,54.17
2019-02-21T17:22:41.643Z,54.55
2019-02-21T17:25:16.308Z,55.22
2019-02-21T17:27:51.067Z,54.10
2019-02-21T17:30:25.610Z,55.33
2019-02-21T17:32:59.649Z,55.75
2019-02-21T17:35:33.604Z,55.95
2019-02-21T17:38:07.752Z,55.95
2019-02-21T17:40:42.778Z,55.19
2019-02-21T17:43:17.454Z,55.95
2019-02-21T17:45:52.122Z,55.69
2019-02-21T17:48:26.660Z,55.69
2019-02-21T17:51:00.722Z,55.68
2019-02-21T17:53:35.324Z,55.90
2019-02-21T17:56:10.126Z,54.40
2019-02-21T17:58:44.693Z,53.55
2019-02-21T18:01:18.434Z,54.35
2019-02-21T18:03:53.165Z,54.35
2019-02-21T18:06:27.502Z,54.53
2019-02-21T18:09:03.669Z,55.71
2019-02-21T18:11:40.187Z,55.31
2019-02-21T18:14:18.125Z,55.31
2019-02-21T18:16:52.555Z,55.73
2019-02-21T18:19:28.123Z,54.58
2019-02-21T18:22:02.741Z,54.58
2019-02-21T18:24:37.838Z,54.29
2019-02-21T18:27:12.526Z,54.38
2019-02-21T18:29:47.615Z,54.15
2019-02-21T18:32:21.556Z,54.15
2019-02-21T18:34:55.531Z,54.22
2019-02-21T18:37:30.104Z,54.85
2019-02-21T18:40:16.625Z,54.85
2019-02-21T18:42:43.672Z,54.95
2019-02-21T18:45:18.574Z,54.91
2019-02-21T18:47:52.713Z,54.91
2019-02-21T18:50:37.662Z,54.05
2019-02-21T18:53:03.912Z,54.99
2019-02-21T18:55:38.522Z,54.99
2019-02-21T18:58:14.306Z,54.50
2019-02-21T19:00:49.462Z,54.63
2019-02-21T19:03:30.304Z,54.63
2019-02-21T19:06:05.089Z,53.94
2019-02-21T19:08:39.775Z,54.70
2019-02-21T19:11:14.507Z,54.55
2019-02-21T19:13:49.008Z,54.20
2019-02-21T19:16:23.494Z,54.58
2019-02-21T19:18:58.320Z,54.31
2019-02-21T19:21:33.045Z,54.31
2019-02-21T19:24:08.040Z,53.73
2019-02-21T19:26:42.842Z,54.82
2019-02-21T19:29:17.605Z,55.10
2019-02-21T19:31:52.424Z,55.91
2019-02-21T19:34:27.083Z,55.91
2019-02-21T19:37:02.316Z,54.95
2019-02-21T19:39:37.164Z,54.09
2019-02-21T19:42:11.847Z,53.90
2019-02-21T19:44:46.336Z,54.38
2019-02-21T19:47:20.824Z,55.80
2019-02-21T19:49:55.873Z,55.22
2019-02-21T19:52:30.750Z,54.72
2019-02-21T19:55:05.585Z,55.07
2019-02-21T19:57:39.492Z,54.53
2019-02-21T20:00:17.498Z,54.29
2019-02-21T20:02:51.935Z,54.29
2019-02-21T20:05:27.444Z,54.93
2019-02-21T20:08:08.746Z,55.96
2019-02-21T20:10:39.064Z,55.96
2019-02-21T20:13:14.912Z,56.08
2019-02-21T20:15:49.893Z,57.18
2019-02-21T20:18:24.706Z,58.48
2019-02-21T20:20:59.542Z,59.38
2019-02-21T20:23:34.319Z,59.73
2019-02-21T20:26:17.909Z,59.73
2019-02-21T20:28:45.834Z,58.32
2019-02-21T20:31:20.568Z,58.16
2019-02-21T20:33:54.648Z,57.47
2019-02-21T20:36:28.621Z,57.82
2019-02-21T20:39:04.546Z,57.23
2019-02-21T20:41:41.149Z,57.23
2019-02-21T20:44:16.466Z,55.95
2019-02-21T20:46:51.601Z,55.83
2019-02-21T20:49:26.319Z,55.83
2019-02-21T20:52:01.131Z,56.90
2019-02-21T20:54:35.804Z,57.74
2019-02-21T20:57:10.485Z,57.32
2019-02-21T20:59:45.158Z,56.96
2019-02-21T21:02:19.738Z,56.64
2019-02-21T21:04:54.694Z,57.19
2019-02-21T21:07:29.327Z,56.83
2019-02-21T21:10:08.735Z,56.56
2019-02-21T21:12:43.723Z,55.56
2019-02-21T21:15:18.590Z,55.09
2019-02-21T21:17:52.561Z,55.06
2019-02-21T21:20:26.535Z,55.60
2019-02-21T21:23:00.539Z,55.60
2019-02-21T21:25:35.307Z,56.56
2019-02-21T21:28:10.074Z,56.56
2019-02-21T21:30:45.179Z,56.68
2019-02-21T21:33:20.168Z,56.57
2019-02-21T21:35:54.841Z,56.50
2019-02-21T21:38:29.675Z,57.06
2019-02-21T21:41:04.584Z,56.68
2019-02-21T21:43:39.324Z,57.54
2019-02-21T21:46:14.154Z,57.54
2019-02-21T21:48:48.886Z,58.35
2019-02-21T21:51:23.647Z,57.59
2019-02-21T21:53:57.556Z,58.13
2019-02-21T21:56:31.331Z,56.78
2019-02-21T21:59:05.862Z,56.78
2019-02-21T22:01:40.517Z,56.33
2019-02-21T22:04:16.317Z,57.02
2019-02-21T22:06:50.818Z,57.02
2019-02-21T22:09:25.497Z,58.09
2019-02-21T22:12:00.143Z,57.43
2019-02-21T22:14:34.610Z,57.43
2019-02-21T22:17:09.073Z,56.80
2019-02-21T22:19:43.826Z,56.80
2019-02-21T22:22:18.584Z,57.04
2019-02-21T22:24:53.164Z,56.87
2019-02-21T22:27:27.825Z,56.87
2019-02-21T22:30:02.369Z,56.71
2019-02-21T22:32:36.833Z,55.68
2019-02-21T22:35:11.520Z,56.52
2019-02-21T22:37:46.215Z,58.06
2019-02-21T22:40:21.132Z,58.06
2019-02-21T22:42:55.987Z,58.29
2019-02-21T22:45:31.616Z,58.13
2019-02-21T22:50:55.023Z,58.26
2019-02-21T22:53:29.654Z,57.62
2019-02-21T22:56:04.469Z,58.17
2019-02-21T22:58:45.114Z,58.11
2019-02-21T23:01:39.138Z,58.11
2019-02-21T23:04:51.039Z,58.42
2019-02-21T23:07:49.480Z,58.35
2019-02-21T23:10:24.190Z,57.32
2019-02-21T23:12:58.722Z,57.32
2019-02-21T23:15:33.105Z,57.84
2019-02-21T23:18:08.090Z,57.31
2019-02-21T23:20:43.319Z,57.70
2019-02-21T23:23:17.856Z,57.73
2019-02-21T23:25:52.309Z,57.93
2019-02-21T23:28:26.812Z,57.38
2019-02-21T23:31:01.521Z,56.92
2019-02-21T23:33:39.003Z,56.84
2019-02-21T23:36:14.076Z,57.23
2019-02-21T23:38:48.527Z,57.23
2019-02-21T23:41:23.160Z,56.91
2019-02-21T23:43:57.557Z,57.85
2019-02-21T23:46:32.153Z,57.92
2019-02-21T23:49:06.823Z,57.92
2019-02-21T23:51:41.438Z,57.89
2019-02-21T23:54:16.045Z,58.04
2019-02-21T23:56:50.633Z,57.29
2019-02-21T23:59:24.889Z,58.12
